Details for Thomas Cook Airlines at EGNX




Go Back


Latest METAR
Local Time

EGNX 220920Z 23008KT CAVOK 11/09 Q1018
22/09/2018, 10:52:19

Description
Results
Thomas Cook Airlines Logo
Number of Pilots based at EGNX
1 Pilots Based here
Number of Thomas Cook Airlines Flights Departed from EGNX
0 Flights Departed
Number of Thomas Cook Airlines Flights Arrived at EGNX
0 Flights Arrived
Number of Thomas Cook Airlines Schedules Departing from EGNX
16 Schedules
Number of Thomas Cook Airlines Schedules Arriving at EGNX
15 Schedules
Number of Thomas Cook Airlines Schedules Departing from EGNX availible today
3 Schedules Today
Number of Thomas Cook Airlines Schedules Arriving at EGNX availible today
3 Schedules Today
Average Landing Rate at EGNX
-197 fpm
Thomas Cook Airlines Average Landing Rate at EGNX
0 fpm
Total Fuel Purchased at EGNX by Thomas Cook Airlines
0.00 kgs / 0.00 lbs

Pilots Based at EGNX


Pilot ID
Pilot Name
Pilot Rank
No. of Flights
No. of Flying Hours
Stephen Whyles
212
460.23
Content